(°C)
10°
10°
10°
10°
10°
11°
12°
(°C)
SSO
SO
SO
SSO
SO
SO
SO
(km/h)
12-21
14-25
14-27
16-28
19-32
20-35
21-38
(mm)
0
0
0
0
0
0
0
(%)
0
0
4
5
0
5
10

Elevação do sol

/ -17.7°
sun-icon
UV 1
07:12
19:14
Crescente (8°)
07:32
19:37

METAR para Bordenau (ETNW)

Hora Condições Temperatura/
Ponto de condensação
Vento Visibilidade Tempo Nuvens Pressão Mudança Bruto
VFR 10°C / 8°C 220º 7kt >10km - Broken Clouds 7500ft 1006 - ETNW 260220Z 22007KT 9999 BKN075 10/08 Q1006 BLU
VFR 9°C / 8°C 210º 7kt >10km - Broken Clouds 7500ft 1007 - ETNW 260120Z 21007KT 9999 BKN075 09/08 Q1007 BLU
VFR 10°C / 8°C 220º 7kt >10km - Broken Clouds 7500ft 1008 - ETNW 260020Z 22007KT 9999 BKN075 10/08 Q1008 BLU
VFR 10°C / 8°C 240º 5kt >10km - Few Clouds 3000ft
Scattered Clouds 8000ft
1009 - ETNW 252320Z 24005KT 9999 FEW030 SCT080 10/08 Q1009 BLU+
VFR 10°C / 8°C 260º 5kt >10km - Few Clouds 8000ft 1009 - ETNW 252220Z 26005KT 9999 FEW080 10/08 Q1009 BLU+
VFR 10°C / 9°C 240º 4kt >10km - Few Clouds 8000ft 1010 - ETNW 252120Z 24004KT 9999 FEW080 10/09 Q1010 BLU+
VFR 11°C / 9°C 280º 4kt >10km - Few Clouds 2800ft
Scattered Clouds 3300ft
1010 - ETNW 252020Z 28004KT 9999 FEW028 SCT033 11/09 Q1010 BLU+
VFR 11°C / 10°C variable 1kt >10km - Few Clouds 2800ft
Broken Clouds 7500ft
1010 - ETNW 251920Z VRB01KT 9999 FEW028 BKN075 11/10 Q1010 BLU
VFR 12°C / 9°C variable 1kt >10km - Few Clouds 2500ft
Broken Clouds 7500ft
1011 - ETNW 251820Z VRB01KT 9999 FEW025 BKN075 12/09 Q1011 BLU
VFR 12°C / 9°C 240º 3kt >10km - Few Clouds 2500ft
Scattered Clouds 8000ft
1011 - ETNW 251720Z 24003KT 9999 FEW025 SCT080 12/09 Q1011 BLU+
VFR 14°C / 8°C 330º 3kt >10km - Few Clouds 2500ft
Broken Clouds 8000ft
1011 - ETNW 251620Z 33003KT 9999 FEW025 BKN080 14/08 Q1011 BLU
VFR 15°C / 8°C 330º 8kt >10km - Few Clouds 2000ft
Broken Clouds 6000ft
1011 - ETNW 251520Z 33008KT 9999 FEW020 BKN060 15/08 Q1011 BLU
VFR 15°C / 10°C 330º 11kt >10km - Few Clouds 3500ft
Broken Clouds 6000ft
1011 - ETNW 251420Z 33011KT 9999 FEW035 BKN060 15/10 Q1011 BLU
VFR 16°C / 8°C 320º 10kt >10km - Few Clouds 3400ft
Broken Clouds 4500ft
1012 - ETNW 251320Z 32010KT 9999 FEW034 BKN045 16/08 Q1012 BLU
VFR 17°C / 8°C 320º 10kt >10km - Scattered Clouds 3500ft 1012 - ETNW 251220Z 32010KT 9999 SCT035 17/08 Q1012 BLU+
VFR 16°C / 9°C 300º 5kt >10km - Scattered Clouds 2400ft 1012 - ETNW 251120Z 30005KT 9999 SCT024 16/09 Q1012 BLU+
VFR 14°C / 11°C 300º 8kt >10km - Few Clouds 1000ft
Scattered Clouds 2000ft
Broken Clouds 4300ft
1013 - ETNW 250943Z 30008KT 9999 FEW010 SCT020 BKN043 14/11 Q1013 BLU
MVFR 13°C / 11°C 300º 9kt >10km - Few Clouds 800ft
Broken Clouds 1800ft
1013 - ETNW 250920Z 30009KT 9999 FEW008 BKN018 13/11 Q1013 WHT
MVFR 13°C / 11°C 290º 9kt >10km - Scattered Clouds 800ft
Broken Clouds 2000ft
1013 - ETNW 250907Z 29009KT 9999 SCT008 BKN020 13/11 Q1013 WHT
IFR 12°C / 12°C 290º 7kt >10km - Broken Clouds 700ft 1013 - ETNW 250820Z 29007KT 9999 BKN007 12/12 Q1013 GRN
MVFR 12°C / 11°C 290º 8kt >10km - Scattered Clouds 400ft
Broken Clouds 1000ft
1012 - ETNW 250745Z 29008KT 9999 SCT004 BKN010 12/11 Q1012 GRN
LIFR 12°C / 11°C 280º 8kt >10km - Broken Clouds 400ft 1012 - ETNW 250720Z 28008KT 9999 BKN004 12/11 Q1012 YLO
IFR 12°C / 12°C 270º 6kt 9000m - Few Clouds 300ft
Broken Clouds 500ft
1012 - ETNW 250643Z 27006KT 9000 FEW003 BKN005 12/12 Q1012 YLO
IFR 12°C / 12°C 270º 6kt 9000m - Few Clouds 400ft
Broken Clouds 800ft
1012 - ETNW 250620Z 27006KT 9000 FEW004 BKN008 12/12 Q1012 GRN

VFR

10°C / 8°C

[Mais]
Vento 220º 7kt
Visibilidade >10km
Tempo -
Nuvens Broken Clouds 7500ft
Pressão 1006
Mudança -
Bruto ETNW 260220Z 22007KT 9999 BKN075 10/08 Q1006 BLU

VFR

9°C / 8°C

[Mais]
Vento 210º 7kt
Visibilidade >10km
Tempo -
Nuvens Broken Clouds 7500ft
Pressão 1007
Mudança -
Bruto ETNW 260120Z 21007KT 9999 BKN075 09/08 Q1007 BLU

VFR

10°C / 8°C

[Mais]
Vento 220º 7kt
Visibilidade >10km
Tempo -
Nuvens Broken Clouds 7500ft
Pressão 1008
Mudança -
Bruto ETNW 260020Z 22007KT 9999 BKN075 10/08 Q1008 BLU

VFR

10°C / 8°C

[Mais]
Vento 240º 5kt
Visibilidade >10km
Tempo -
Nuvens Few Clouds 3000ft
Scattered Clouds 8000ft
Pressão 1009
Mudança -
Bruto ETNW 252320Z 24005KT 9999 FEW030 SCT080 10/08 Q1009 BLU+

VFR

10°C / 8°C

[Mais]
Vento 260º 5kt
Visibilidade >10km
Tempo -
Nuvens Few Clouds 8000ft
Pressão 1009
Mudança -
Bruto ETNW 252220Z 26005KT 9999 FEW080 10/08 Q1009 BLU+

VFR

10°C / 9°C

[Mais]
Vento 240º 4kt
Visibilidade >10km
Tempo -
Nuvens Few Clouds 8000ft
Pressão 1010
Mudança -
Bruto ETNW 252120Z 24004KT 9999 FEW080 10/09 Q1010 BLU+

VFR

11°C / 9°C

[Mais]
Vento 280º 4kt
Visibilidade >10km
Tempo -
Nuvens Few Clouds 2800ft
Scattered Clouds 3300ft
Pressão 1010
Mudança -
Bruto ETNW 252020Z 28004KT 9999 FEW028 SCT033 11/09 Q1010 BLU+

VFR

11°C / 10°C

[Mais]
Vento variable 1kt
Visibilidade >10km
Tempo -
Nuvens Few Clouds 2800ft
Broken Clouds 7500ft
Pressão 1010
Mudança -
Bruto ETNW 251920Z VRB01KT 9999 FEW028 BKN075 11/10 Q1010 BLU

VFR

12°C / 9°C

[Mais]
Vento variable 1kt
Visibilidade >10km
Tempo -
Nuvens Few Clouds 2500ft
Broken Clouds 7500ft
Pressão 1011
Mudança -
Bruto ETNW 251820Z VRB01KT 9999 FEW025 BKN075 12/09 Q1011 BLU

VFR

12°C / 9°C

[Mais]
Vento 240º 3kt
Visibilidade >10km
Tempo -
Nuvens Few Clouds 2500ft
Scattered Clouds 8000ft
Pressão 1011
Mudança -
Bruto ETNW 251720Z 24003KT 9999 FEW025 SCT080 12/09 Q1011 BLU+

VFR

14°C / 8°C

[Mais]
Vento 330º 3kt
Visibilidade >10km
Tempo -
Nuvens Few Clouds 2500ft
Broken Clouds 8000ft
Pressão 1011
Mudança -
Bruto ETNW 251620Z 33003KT 9999 FEW025 BKN080 14/08 Q1011 BLU

VFR

15°C / 8°C

[Mais]
Vento 330º 8kt
Visibilidade >10km
Tempo -
Nuvens Few Clouds 2000ft
Broken Clouds 6000ft
Pressão 1011
Mudança -
Bruto ETNW 251520Z 33008KT 9999 FEW020 BKN060 15/08 Q1011 BLU

VFR

15°C / 10°C

[Mais]
Vento 330º 11kt
Visibilidade >10km
Tempo -
Nuvens Few Clouds 3500ft
Broken Clouds 6000ft
Pressão 1011
Mudança -
Bruto ETNW 251420Z 33011KT 9999 FEW035 BKN060 15/10 Q1011 BLU

VFR

16°C / 8°C

[Mais]
Vento 320º 10kt
Visibilidade >10km
Tempo -
Nuvens Few Clouds 3400ft
Broken Clouds 4500ft
Pressão 1012
Mudança -
Bruto ETNW 251320Z 32010KT 9999 FEW034 BKN045 16/08 Q1012 BLU

VFR

17°C / 8°C

[Mais]
Vento 320º 10kt
Visibilidade >10km
Tempo -
Nuvens Scattered Clouds 3500ft
Pressão 1012
Mudança -
Bruto ETNW 251220Z 32010KT 9999 SCT035 17/08 Q1012 BLU+

VFR

16°C / 9°C

[Mais]
Vento 300º 5kt
Visibilidade >10km
Tempo -
Nuvens Scattered Clouds 2400ft
Pressão 1012
Mudança -
Bruto ETNW 251120Z 30005KT 9999 SCT024 16/09 Q1012 BLU+

VFR

14°C / 11°C

[Mais]
Vento 300º 8kt
Visibilidade >10km
Tempo -
Nuvens Few Clouds 1000ft
Scattered Clouds 2000ft
Broken Clouds 4300ft
Pressão 1013
Mudança -
Bruto ETNW 250943Z 30008KT 9999 FEW010 SCT020 BKN043 14/11 Q1013 BLU

MVFR

13°C / 11°C

[Mais]
Vento 300º 9kt
Visibilidade >10km
Tempo -
Nuvens Few Clouds 800ft
Broken Clouds 1800ft
Pressão 1013
Mudança -
Bruto ETNW 250920Z 30009KT 9999 FEW008 BKN018 13/11 Q1013 WHT

MVFR

13°C / 11°C

[Mais]
Vento 290º 9kt
Visibilidade >10km
Tempo -
Nuvens Scattered Clouds 800ft
Broken Clouds 2000ft
Pressão 1013
Mudança -
Bruto ETNW 250907Z 29009KT 9999 SCT008 BKN020 13/11 Q1013 WHT

IFR

12°C / 12°C

[Mais]
Vento 290º 7kt
Visibilidade >10km
Tempo -
Nuvens Broken Clouds 700ft
Pressão 1013
Mudança -
Bruto ETNW 250820Z 29007KT 9999 BKN007 12/12 Q1013 GRN

MVFR

12°C / 11°C

[Mais]
Vento 290º 8kt
Visibilidade >10km
Tempo -
Nuvens Scattered Clouds 400ft
Broken Clouds 1000ft
Pressão 1012
Mudança -
Bruto ETNW 250745Z 29008KT 9999 SCT004 BKN010 12/11 Q1012 GRN

LIFR

12°C / 11°C

[Mais]
Vento 280º 8kt
Visibilidade >10km
Tempo -
Nuvens Broken Clouds 400ft
Pressão 1012
Mudança -
Bruto ETNW 250720Z 28008KT 9999 BKN004 12/11 Q1012 YLO

IFR

12°C / 12°C

[Mais]
Vento 270º 6kt
Visibilidade 9000m
Tempo -
Nuvens Few Clouds 300ft
Broken Clouds 500ft
Pressão 1012
Mudança -
Bruto ETNW 250643Z 27006KT 9000 FEW003 BKN005 12/12 Q1012 YLO

IFR

12°C / 12°C

[Mais]
Vento 270º 6kt
Visibilidade 9000m
Tempo -
Nuvens Few Clouds 400ft
Broken Clouds 800ft
Pressão 1012
Mudança -
Bruto ETNW 250620Z 27006KT 9000 FEW004 BKN008 12/12 Q1012 GRN

TAF para Bordenau (ETNW)

From till


From till Wind 230º 6kt. Visibility 10km or more. Few Clouds 8000ft. Broken Clouds 24000ft.
Becoming from till Wind 220º 10kt. Visibility 10km or more. Broken Clouds 6000ft. Broken Clouds 18000ft.
Becoming from till Wind 210º 12kt. Gust 22kt. Visibility 8000m. Light Rain . Broken Clouds 3500ft.
Becoming from till Wind 190º 10kt. Visibility 5000m. Light Rain . Broken Clouds 1200ft.

Bruto: TAF ETNW 252256Z 2523/2623 23006KT 9999 NSW FEW080 BKN240 BECMG 2605/2607 22010KT 9999 NSW BKN060 BKN180 BECMG 2609/2611 21012G22KT 8000 -RA BKN035 BECMG 2620/2622 19010KT 5000 -RA BKN012 BY ETGL

rainNOW: Pluviosidade agoracast por Bordenau e arredores (raio de 25km)

0.0 mm
0.0 mm
0.0 mm
0.0 mm
0.0 mm
0.0 mm
0.0 mm
0.0 mm
0.0 mm
0.0 mm
0.0 mm
0.0 mm

Radar para Bordenau

Chuvisco
Leve
Moderado
Forte
Muito forte
Granizo

O marcador do lugar é colocado em Bordenau. Esta animação mostra o radar de precipitação para a última hora, assim como a 2h previsão. A queda de neve pode ser invisível para o radar. A intensidade da precipitação é codificada por cores, variando do azul claro ao laranja.
Copyright 2022 Deutscher Wetterdienst / meteoblue.

Imagens atuais de satélite e precipitação para Bordenau, Alemanha

O marcador de lugar é colocado em Bordenau. [Mais]

A imagem de satélite em tempo real combina luz visível durante o dia com radiação infravermelha durante a noite. À noite, a imagem não é escura, pois a radiação infravermelha pode detectar diferenças de temperatura. Infelizmente, nuvens baixas e neblina são difíceis de distinguir das temperaturas do solo e, portanto, podem ser quase invisíveis durante a noite. As imagens de satélite Meteosat para a Europa são atualizadas em tempo real a cada 5 minutos. GOES-16/GOES-17 ( América do Norte e do Sul) e Himawari (Ásia) são atualizadas a cada 10 minutos.

A precipitação é estimada a partir de radares e satélites. As estimativas de precipitação a partir de satélites são menos precisas à noite do que durante o dia. Cruzes laranjas identificam lugares onde relâmpagos foram detetados (em Europa).

Copyright 2022 EUMETSAT / meteoblue. Dados de relâmpagos fornecidos por nowcast.

Voltar ao início